Торонто, Ontario

04:22 AM EDT на 25 Април, 2018 (GMT -0400)
Toronto Windsurfing Club, 2 Regatta Road | | Change Station

Elev 262 ft 43.64 °N, 79.34 °W | Updated 3 seconds ago

Light Rain
Слаб дожд
43.7 °F
Feels Like 38 °F
С
11.0
Ветер Променлив Ветер from СИ
Gusts 14.0 mph

Денес
High -- | Low -- °F
--% Chance of Precip.
Вчера
High -- | Low -- °F
Precip. -- инчи
Притисок 29.96 инчи
Видливост 5.0 миљи
Облаци Few 500 ft
Заоблачено 2800 ft
Лични чувство за темп. со ветерот 38 °F
Точка на kондензација 43 °F
Влажност 96%
Дожд 0.05 инчи
Височина на снег Not available.
6:18 AM 8:12 PM
Вториот квартал, 76% visible
METAR CYTZ 250800Z AUTO 07012KT 5SM -RA BR FEW005 OVC028 07/07 A2995 RMK SLP146
Притисок 29.96 инчи
Видливост 5.0 миљи
Облаци Few 500 ft
Заоблачено 2800 ft
Лични чувство за темп. со ветерот 38 °F
Точка на kондензација 43 °F
Влажност 96%
Дожд 0.05 инчи
Височина на снег Not available.
6:18 AM 8:12 PM
Вториот квартал, 76% visible
METAR CYTZ 250800Z AUTO 07012KT 5SM -RA BR FEW005 OVC028 07/07 A2995 RMK SLP146

Get Severe Weather Alerts

Thanks for signing up!

Be on the lookout for a verification email in your inbox.

You'll start receiving the daily forecast at 6 AM.

×

10-Day Weather Forecast

Almanac

Астрономијата

Apr. 25, 2018 Изгревање Заоѓање
Актуелно време
Граѓанскиот самрак
Наутички самрак
Астрономски самрак
Месечината
Должина на видливата светлина
Должина на денот
Tomorrow will be .
, % of the Moon is Illuminated

Екстреми денес

Country Highs Country Lows

Community

WunderPhotos

Category 6

Welcome to Category 6. This is the collective home for Weather Underground's featured writeups by Dr. Jeff Masters (right), Bob Henson (left), Chris Burt, and other regular contributors.

Nearby

Квалитетот на воздухот

  Квалитетот на воздухот AQ индекс Загадувач
Not available.

Височина на снег

Station Depth Висина

Earthquake Activity

Град Distance Mag. Time & Date
Minimum magnitude displayed is 2.5.

Coastal Water Temperatures

Место Температура

Stations

Nearby Weather Stations

Локација на станицата Темп. Лични чувство за темп. со ветерот Точка на kондензација Влажност Ветер Precip. Elev Ажурирани Тип
                   

Watches & Warnings

There are currently no watches in effect.